createdAt,value
2023-03-12T00:01:56.543Z,13.33
2023-03-12T00:04:26.682Z,7.97
2023-03-12T00:06:56.201Z,10.85
2023-03-12T00:09:25.996Z,13.83
2023-03-12T00:11:56.085Z,10.75
2023-03-12T00:14:25.550Z,12.23
2023-03-12T00:16:55.950Z,10.68
2023-03-12T00:19:26.144Z,10.83
2023-03-12T00:21:56.266Z,14.85
2023-03-12T00:24:25.840Z,21.20
2023-03-12T00:26:55.580Z,10.27
2023-03-12T00:29:25.361Z,9.50
2023-03-12T00:31:56.423Z,16.87
2023-03-12T00:34:26.076Z,9.85
2023-03-12T00:36:55.889Z,9.33
2023-03-12T00:39:25.722Z,10.13
2023-03-12T00:41:55.498Z,8.05
2023-03-12T00:44:25.752Z,8.07
2023-03-12T00:46:55.928Z,8.80
2023-03-12T00:49:25.849Z,10.93
2023-03-12T00:51:56.343Z,6.83
2023-03-12T00:54:26.468Z,12.10
2023-03-12T00:56:56.212Z,5.50
2023-03-12T00:59:26.120Z,8.87
2023-03-12T01:01:55.898Z,8.70
2023-03-12T01:04:25.681Z,7.33
2023-03-12T01:06:56.895Z,9.33
2023-03-12T01:09:26.885Z,8.80
2023-03-12T01:11:56.636Z,11.50
2023-03-12T01:14:26.413Z,9.68
2023-03-12T01:16:56.584Z,8.43
2023-03-12T01:19:26.446Z,8.93
2023-03-12T01:21:56.252Z,8.33
2023-03-12T01:24:25.959Z,6.57
2023-03-12T01:26:56.549Z,9.40
2023-03-12T01:29:26.878Z,10.25
2023-03-12T01:31:56.753Z,6.27
2023-03-12T01:34:26.245Z,7.27
2023-03-12T01:36:55.990Z,6.40
2023-03-12T01:39:26.061Z,6.80
2023-03-12T01:41:56.081Z,9.05
2023-03-12T01:44:25.738Z,9.10
2023-03-12T01:46:55.852Z,7.93
2023-03-12T01:49:30.292Z,6.73
2023-03-12T01:52:06.324Z,9.37
2023-03-12T01:54:43.808Z,7.27
2023-03-12T01:57:16.767Z,9.78
2023-03-12T01:59:49.888Z,6.55
2023-03-12T02:02:22.083Z,9.97
2023-03-12T02:04:54.874Z,7.00
2023-03-12T02:07:24.709Z,4.20
2023-03-12T02:09:54.675Z,4.37
2023-03-12T02:12:24.475Z,7.10
2023-03-12T02:14:54.626Z,4.87
2023-03-12T02:17:25.820Z,8.80
2023-03-12T02:20:20.971Z,9.67
2023-03-12T02:23:05.323Z,6.57
2023-03-12T02:25:43.342Z,12.63
2023-03-12T02:28:15.596Z,11.27
2023-03-12T02:30:50.749Z,9.57
2023-03-12T02:33:20.490Z,8.77
2023-03-12T02:35:50.468Z,7.50
2023-03-12T02:38:31.674Z,5.70
2023-03-12T02:41:04.627Z,8.90
2023-03-12T02:43:34.472Z,6.30
2023-03-12T02:46:06.678Z,8.60
2023-03-12T02:48:36.373Z,5.10
2023-03-12T02:51:06.256Z,9.47
2023-03-12T02:53:36.088Z,8.43
2023-03-12T02:56:08.407Z,7.50
2023-03-12T02:58:38.278Z,8.23
2023-03-12T03:01:08.459Z,6.28
2023-03-12T03:03:38.912Z,6.43
2023-03-12T03:06:11.310Z,10.20
2023-03-12T03:08:41.256Z,6.17
2023-03-12T03:11:11.220Z,7.10
2023-03-12T03:13:41.158Z,6.43
2023-03-12T03:16:13.617Z,5.48
2023-03-12T03:18:43.528Z,12.10
2023-03-12T03:21:15.975Z,7.43
2023-03-12T03:23:47.782Z,7.47
2023-03-12T03:26:19.950Z,8.50
2023-03-12T03:28:51.565Z,13.20
2023-03-12T03:31:22.008Z,8.97
2023-03-12T03:33:52.292Z,6.00
2023-03-12T03:36:23.158Z,6.03
2023-03-12T03:38:54.639Z,12.07
2023-03-12T03:41:26.063Z,7.80
2023-03-12T03:43:59.876Z,9.45
2023-03-12T03:46:30.979Z,10.13
2023-03-12T03:49:03.127Z,7.50
2023-03-12T03:51:33.372Z,6.93
2023-03-12T03:54:06.259Z,6.10
2023-03-12T03:56:36.413Z,5.67
2023-03-12T03:59:06.818Z,7.45
2023-03-12T04:01:38.457Z,7.80
2023-03-12T04:04:10.975Z,9.63
2023-03-12T04:06:41.040Z,9.50
2023-03-12T04:09:10.933Z,12.93
2023-03-12T04:11:41.347Z,8.13
2023-03-12T04:14:11.692Z,9.20
2023-03-12T04:16:43.012Z,9.63
2023-03-12T04:19:13.804Z,12.18
2023-03-12T04:21:43.708Z,8.47
2023-03-12T04:24:17.167Z,7.45
2023-03-12T04:26:47.286Z,7.47
2023-03-12T04:29:18.063Z,11.20
2023-03-12T04:31:48.060Z,6.10
2023-03-12T04:34:18.045Z,10.72
2023-03-12T04:36:49.131Z,9.28
2023-03-12T04:39:20.433Z,13.87
2023-03-12T04:41:51.728Z,7.00
2023-03-12T04:44:21.514Z,9.10
2023-03-12T04:46:51.493Z,9.73
2023-03-12T04:49:23.226Z,7.97
2023-03-12T04:51:53.119Z,7.57
2023-03-12T04:54:23.472Z,9.43
2023-03-12T04:56:53.990Z,9.97
2023-03-12T04:59:23.923Z,16.27
2023-03-12T05:01:53.960Z,15.85
2023-03-12T05:04:25.502Z,6.35
2023-03-12T05:06:55.723Z,8.93
2023-03-12T05:09:25.671Z,11.13
2023-03-12T05:11:55.587Z,8.30
2023-03-12T05:14:25.533Z,8.28
2023-03-12T05:16:55.535Z,8.53
2023-03-12T05:19:25.320Z,7.50
2023-03-12T05:21:54.914Z,8.40
2023-03-12T05:24:24.874Z,7.70
2023-03-12T05:26:54.696Z,7.33
2023-03-12T05:29:25.740Z,6.57
2023-03-12T05:31:56.351Z,9.10
2023-03-12T05:34:25.928Z,9.03
2023-03-12T05:36:55.804Z,9.50
2023-03-12T05:39:28.485Z,7.20
2023-03-12T05:42:00.475Z,10.65
2023-03-12T05:44:30.106Z,10.90
2023-03-12T05:47:00.020Z,8.50
2023-03-12T05:49:29.865Z,8.30
2023-03-12T05:51:59.964Z,9.73
2023-03-12T05:54:30.268Z,11.10
2023-03-12T05:57:00.499Z,9.83
2023-03-12T05:59:31.515Z,9.00
2023-03-12T06:02:02.340Z,10.30
2023-03-12T06:04:32.256Z,12.00
2023-03-12T06:07:02.857Z,11.30
2023-03-12T06:09:33.309Z,11.73
2023-03-12T06:12:03.376Z,6.83
2023-03-12T06:14:33.074Z,7.55
2023-03-12T06:17:03.657Z,7.87
2023-03-12T06:19:33.498Z,10.00
2023-03-12T06:22:04.224Z,13.20
2023-03-12T06:24:34.914Z,8.47
2023-03-12T06:27:06.892Z,9.28
2023-03-12T06:29:36.636Z,10.37
2023-03-12T06:32:08.202Z,15.33
2023-03-12T06:34:38.052Z,11.93
2023-03-12T06:37:07.609Z,10.10
2023-03-12T06:39:38.269Z,11.30
2023-03-12T06:42:09.954Z,7.10
2023-03-12T06:44:39.772Z,11.00
2023-03-12T06:47:09.526Z,5.30
2023-03-12T06:49:39.396Z,11.60
2023-03-12T06:52:11.662Z,10.50
2023-03-12T06:54:41.424Z,7.85
2023-03-12T06:57:11.200Z,9.80
2023-03-12T06:59:41.021Z,17.87
2023-03-12T07:02:13.117Z,8.94
2023-03-12T07:04:42.992Z,10.73
2023-03-12T07:07:12.809Z,15.00
2023-03-12T07:09:42.912Z,14.18
2023-03-12T07:12:12.390Z,14.63
2023-03-12T07:14:42.172Z,9.57
2023-03-12T07:17:12.261Z,14.37
2023-03-12T07:19:42.235Z,11.43
2023-03-12T07:22:12.040Z,12.57
2023-03-12T07:24:41.985Z,10.53
2023-03-12T07:27:11.819Z,11.43
2023-03-12T07:29:41.761Z,14.47
2023-03-12T07:32:11.480Z,12.80
2023-03-12T07:34:41.538Z,10.65
2023-03-12T07:37:11.604Z,16.23
2023-03-12T07:39:41.479Z,16.13
2023-03-12T07:42:15.294Z,13.04
2023-03-12T07:44:46.169Z,13.83
2023-03-12T07:47:23.753Z,15.87
2023-03-12T07:49:48.237Z,12.93
2023-03-12T07:52:19.989Z,15.53
2023-03-12T07:54:51.613Z,19.30
2023-03-12T07:57:21.515Z,13.38
2023-03-12T07:59:51.503Z,20.57
2023-03-12T08:02:21.783Z,14.83
2023-03-12T08:04:51.771Z,12.30
2023-03-12T08:07:21.775Z,16.13
2023-03-12T08:09:51.677Z,16.20
2023-03-12T08:12:21.458Z,15.77
2023-03-12T08:14:51.327Z,16.67
2023-03-12T08:17:21.296Z,17.53
2023-03-12T08:19:51.246Z,21.77
2023-03-12T08:22:20.996Z,18.70
2023-03-12T08:24:51.116Z,20.40
2023-03-12T08:27:20.878Z,16.00
2023-03-12T08:29:50.728Z,23.50
2023-03-12T08:32:20.666Z,21.07
2023-03-12T08:34:50.431Z,15.72
2023-03-12T08:37:20.576Z,17.67
2023-03-12T08:39:50.762Z,21.05
2023-03-12T08:42:20.551Z,19.03
2023-03-12T08:44:50.621Z,17.10
2023-03-12T08:47:20.401Z,16.00
2023-03-12T08:49:50.206Z,18.03
2023-03-12T08:52:19.697Z,18.27
2023-03-12T08:54:49.549Z,17.30
2023-03-12T08:57:19.634Z,19.53
2023-03-12T08:59:49.856Z,16.27
2023-03-12T09:02:19.685Z,17.92
2023-03-12T09:04:50.552Z,22.67
2023-03-12T09:07:22.130Z,16.60
2023-03-12T09:09:51.922Z,21.13
2023-03-12T09:12:21.946Z,26.30
2023-03-12T09:15:08.288Z,21.27
2023-03-12T09:17:24.936Z,22.90
2023-03-12T09:19:54.867Z,22.20
2023-03-12T09:22:24.360Z,21.25
2023-03-12T09:24:54.185Z,20.80
2023-03-12T09:27:23.968Z,25.80
2023-03-12T09:30:02.738Z,22.97
2023-03-12T09:32:27.610Z,17.80
2023-03-12T09:34:57.548Z,23.27
2023-03-12T09:37:27.500Z,23.20
2023-03-12T09:39:57.854Z,23.87
2023-03-12T09:42:33.707Z,23.07
2023-03-12T09:45:06.070Z,22.47
2023-03-12T09:47:39.194Z,36.53
2023-03-12T09:50:26.134Z,31.12
2023-03-12T09:52:58.838Z,29.93
2023-03-12T09:55:31.205Z,34.47
2023-03-12T09:58:01.002Z,29.80
2023-03-12T10:00:33.609Z,30.12
2023-03-12T10:03:12.561Z,28.63
2023-03-12T10:05:48.186Z,31.27
2023-03-12T10:08:30.290Z,36.45
2023-03-12T10:11:18.462Z,32.13
2023-03-12T10:14:05.960Z,35.25
2023-03-12T10:17:00.797Z,41.13
2023-03-12T10:19:51.208Z,32.95
2023-03-12T10:22:56.358Z,35.70
2023-03-12T10:25:35.492Z,41.60
2023-03-12T10:28:18.310Z,38.27
2023-03-12T10:30:53.991Z,33.73
2023-03-12T10:33:26.419Z,36.47
2023-03-12T10:35:56.756Z,38.92
2023-03-12T10:38:29.527Z,39.98
2023-03-12T10:40:59.283Z,43.10
2023-03-12T10:43:29.398Z,44.17
2023-03-12T10:46:38.655Z,35.63
2023-03-12T10:49:25.898Z,38.13
2023-03-12T10:52:07.477Z,41.00
2023-03-12T10:54:44.053Z,39.87
2023-03-12T10:57:15.848Z,41.07
2023-03-12T10:59:47.837Z,45.00
2023-03-12T11:02:38.211Z,35.88
2023-03-12T11:05:29.590Z,38.10
2023-03-12T11:08:02.875Z,35.93
2023-03-12T11:10:46.884Z,31.80
2023-03-12T11:13:25.896Z,40.17
2023-03-12T11:15:57.949Z,35.20
2023-03-12T11:18:36.434Z,41.73
2023-03-12T11:21:15.735Z,34.43
2023-03-12T11:23:48.607Z,36.20
2023-03-12T11:26:21.396Z,43.10
2023-03-12T11:28:56.902Z,24.73
2023-03-12T11:31:29.558Z,31.83
2023-03-12T11:34:03.069Z,27.85
2023-03-12T11:36:50.675Z,37.70
2023-03-12T11:39:23.281Z,26.30
2023-03-12T11:42:21.285Z,33.07
2023-03-12T11:45:09.955Z,35.00
2023-03-12T11:48:16.018Z,27.80
2023-03-12T11:50:57.720Z,30.90
2023-03-12T11:53:55.653Z,30.10
2023-03-12T11:56:36.907Z,45.37
2023-03-12T11:59:28.698Z,33.10
2023-03-12T12:02:23.766Z,37.27
2023-03-12T12:04:56.581Z,36.50
2023-03-12T12:07:38.515Z,34.70
2023-03-12T12:10:27.636Z,40.00
2023-03-12T12:13:09.310Z,32.95
2023-03-12T12:15:59.828Z,34.00
2023-03-12T12:18:51.462Z,37.80
2023-03-12T12:21:41.924Z,26.30
2023-03-12T12:24:30.901Z,34.03
2023-03-12T12:27:06.789Z,42.13
2023-03-12T12:29:51.431Z,28.05
2023-03-12T12:32:29.906Z,33.10
2023-03-12T12:35:17.724Z,32.27
2023-03-12T12:37:56.104Z,32.00
2023-03-12T12:40:45.401Z,32.80
2023-03-12T12:43:30.626Z,32.93
2023-03-12T12:46:12.349Z,32.20
2023-03-12T12:49:00.114Z,32.73
2023-03-12T12:51:32.922Z,29.77
2023-03-12T12:54:05.516Z,35.35
2023-03-12T12:56:56.068Z,24.13
2023-03-12T12:59:40.792Z,33.07
2023-03-12T13:02:22.372Z,38.57
2023-03-12T13:04:53.815Z,38.37
2023-03-12T13:07:27.930Z,35.35
2023-03-12T13:10:00.357Z,31.23
2023-03-12T13:12:33.257Z,35.40
2023-03-12T13:15:05.393Z,32.63
2023-03-12T13:17:43.671Z,31.30
2023-03-12T13:20:21.066Z,29.64
2023-03-12T13:23:10.142Z,28.20
2023-03-12T13:26:08.292Z,29.83
2023-03-12T13:28:44.489Z,29.03
2023-03-12T13:31:33.214Z,28.57
2023-03-12T13:34:27.574Z,35.60
2023-03-12T13:37:01.456Z,29.50
2023-03-12T13:39:37.012Z,37.90
2023-03-12T13:44:54.312Z,32.08
2023-03-12T13:47:36.365Z,31.60
2023-03-12T13:50:10.341Z,29.77
2023-03-12T13:53:01.264Z,23.60
2023-03-12T13:55:34.070Z,33.87
2023-03-12T13:58:16.651Z,28.65
2023-03-12T14:01:07.491Z,25.37
2023-03-12T14:03:48.155Z,31.70
2023-03-12T14:06:23.238Z,22.82
2023-03-12T14:09:07.452Z,22.53
2023-03-12T14:11:59.261Z,24.63
2023-03-12T14:14:39.310Z,32.87
2023-03-12T14:17:17.763Z,24.83
2023-03-12T14:20:09.225Z,29.33
2023-03-12T14:22:42.012Z,27.17
2023-03-12T14:25:17.271Z,23.47
2023-03-12T14:27:48.453Z,22.97
2023-03-12T14:30:21.315Z,27.90
2023-03-12T14:32:54.344Z,30.13
2023-03-12T14:35:30.286Z,25.57
2023-03-12T14:40:39.196Z,28.23
2023-03-12T14:43:30.191Z,23.83
2023-03-12T14:46:03.061Z,32.80
2023-03-12T14:48:37.801Z,30.23
2023-03-12T14:51:09.080Z,30.40
2023-03-12T14:53:39.838Z,27.07
2023-03-12T14:56:17.529Z,25.33
2023-03-12T15:01:31.137Z,23.60
2023-03-12T15:04:07.778Z,26.50
2023-03-12T15:09:10.461Z,31.30
2023-03-12T15:11:41.115Z,22.33
2023-03-12T15:14:16.812Z,29.82
2023-03-12T15:16:46.941Z,26.57
2023-03-12T15:19:20.208Z,32.53
2023-03-12T15:21:50.733Z,34.23
2023-03-12T15:24:20.937Z,28.07
2023-03-12T15:26:50.801Z,31.33
2023-03-12T15:29:31.336Z,29.07
2023-03-12T15:32:03.476Z,28.40
2023-03-12T15:34:36.231Z,32.83
2023-03-12T15:37:40.984Z,29.93
2023-03-12T15:40:29.321Z,28.95
2023-03-12T15:43:02.177Z,31.60
2023-03-12T15:45:39.855Z,27.02
2023-03-12T15:48:33.579Z,29.08
2023-03-12T15:51:03.733Z,29.43
2023-03-12T15:53:35.357Z,36.30
2023-03-12T15:56:12.299Z,27.70
2023-03-12T16:01:17.485Z,32.28
2023-03-12T16:03:47.930Z,34.10
2023-03-12T16:06:20.732Z,27.20
2023-03-12T16:08:59.432Z,34.03
2023-03-12T16:11:32.126Z,34.33
2023-03-12T16:14:20.205Z,42.40
2023-03-12T16:16:51.185Z,34.67
2023-03-12T16:19:24.087Z,35.20
2023-03-12T16:21:54.069Z,32.80
2023-03-12T16:24:24.162Z,40.03
2023-03-12T16:26:56.703Z,34.40
2023-03-12T16:29:35.190Z,41.30
2023-03-12T16:32:15.557Z,36.10
2023-03-12T16:34:47.910Z,40.25
2023-03-12T16:37:17.671Z,34.93
2023-03-12T16:39:48.714Z,40.00
2023-03-12T16:42:20.213Z,39.63
2023-03-12T16:44:50.165Z,35.10
2023-03-12T16:47:20.168Z,30.10
2023-03-12T16:49:50.003Z,31.73
2023-03-12T16:52:21.991Z,34.20
2023-03-12T16:54:52.234Z,34.60
2023-03-12T16:57:25.078Z,32.57
2023-03-12T16:59:55.639Z,27.83
2023-03-12T17:02:25.606Z,35.05
2023-03-12T17:04:55.576Z,43.10
2023-03-12T17:07:25.449Z,30.47
2023-03-12T17:09:55.376Z,32.57
2023-03-12T17:12:37.286Z,30.43
2023-03-12T17:15:11.144Z,27.60
2023-03-12T17:17:41.206Z,26.20
2023-03-12T17:20:15.687Z,36.38
2023-03-12T17:22:45.867Z,38.90
2023-03-12T17:25:33.272Z,36.58
2023-03-12T17:28:03.728Z,39.48
2023-03-12T17:30:34.534Z,31.20
2023-03-12T17:33:12.864Z,33.08
2023-03-12T17:35:43.241Z,28.17
2023-03-12T17:38:13.750Z,28.52
2023-03-12T17:40:45.076Z,29.63
2023-03-12T17:43:14.987Z,29.20
2023-03-12T17:45:44.899Z,35.67
2023-03-12T17:48:14.923Z,36.10
2023-03-12T17:50:44.994Z,20.30
2023-03-12T17:53:16.282Z,29.97
2023-03-12T17:55:47.229Z,27.83
2023-03-12T17:58:17.015Z,34.77
2023-03-12T18:00:47.140Z,28.10
2023-03-12T18:03:17.094Z,33.87
2023-03-12T18:05:46.916Z,25.97
2023-03-12T18:08:16.758Z,27.98
2023-03-12T18:10:46.849Z,25.75
2023-03-12T18:13:16.632Z,25.53
2023-03-12T18:15:55.126Z,27.93
2023-03-12T18:18:26.288Z,32.13
2023-03-12T18:23:46.050Z,29.37
2023-03-12T18:26:15.679Z,38.05
2023-03-12T18:28:45.893Z,27.60
2023-03-12T18:31:15.727Z,37.40
2023-03-12T18:33:45.532Z,34.90
2023-03-12T18:36:15.399Z,40.93
2023-03-12T18:38:45.155Z,34.87
2023-03-12T18:41:15.757Z,33.47
2023-03-12T18:43:45.386Z,29.20
2023-03-12T18:46:15.184Z,40.10
2023-03-12T18:48:45.143Z,37.30
2023-03-12T18:51:14.918Z,30.40
2023-03-12T18:53:46.138Z,31.60
2023-03-12T18:56:15.804Z,32.83
2023-03-12T18:58:45.569Z,32.03
2023-03-12T19:01:15.424Z,30.47
2023-03-12T19:03:45.533Z,36.00
2023-03-12T19:06:17.384Z,31.20
2023-03-12T19:08:47.305Z,27.73
2023-03-12T19:11:17.916Z,42.53
2023-03-12T19:13:52.110Z,34.87
2023-03-12T19:16:22.631Z,42.10
2023-03-12T19:18:52.813Z,32.50
2023-03-12T19:21:22.676Z,32.40
2023-03-12T19:23:53.122Z,32.27
2023-03-12T19:26:22.725Z,28.50
2023-03-12T19:28:52.535Z,28.93
2023-03-12T19:31:22.439Z,30.83
2023-03-12T19:33:52.360Z,36.40
2023-03-12T19:36:22.195Z,31.27
2023-03-12T19:38:51.975Z,32.33
2023-03-12T19:41:22.992Z,30.47
2023-03-12T19:43:52.773Z,31.33
2023-03-12T19:46:22.593Z,29.40
2023-03-12T19:48:52.702Z,32.08
2023-03-12T19:51:22.480Z,37.63
2023-03-12T19:53:52.293Z,35.40
2023-03-12T19:56:22.044Z,30.47
2023-03-12T19:58:52.001Z,31.90
2023-03-12T20:01:21.619Z,31.15
2023-03-12T20:03:51.440Z,23.30
2023-03-12T20:06:21.246Z,32.83
2023-03-12T20:08:51.095Z,27.70
2023-03-12T20:11:20.909Z,25.97
2023-03-12T20:13:50.690Z,43.07
2023-03-12T20:16:20.723Z,34.23
2023-03-12T20:18:50.260Z,33.98
2023-03-12T20:21:20.050Z,36.90
2023-03-12T20:23:49.901Z,38.43
2023-03-12T20:26:19.634Z,26.27
2023-03-12T20:28:49.656Z,35.37
2023-03-12T20:31:19.629Z,35.30
2023-03-12T20:33:49.482Z,32.60
2023-03-12T20:36:19.358Z,29.80
2023-03-12T20:38:50.780Z,33.80
2023-03-12T20:41:20.854Z,36.17
2023-03-12T20:43:52.154Z,30.83
2023-03-12T20:46:21.791Z,27.60
2023-03-12T20:48:52.144Z,32.60
2023-03-12T20:51:22.025Z,35.87
2023-03-12T20:53:51.650Z,37.10
2023-03-12T20:56:21.385Z,23.92
2023-03-12T20:58:52.256Z,33.48
2023-03-12T21:01:22.204Z,33.80
2023-03-12T21:03:52.396Z,38.73
2023-03-12T21:06:22.172Z,29.77
2023-03-12T21:08:52.323Z,34.27
2023-03-12T21:11:22.083Z,40.20
2023-03-12T21:13:51.848Z,41.73
2023-03-12T21:16:23.105Z,40.38
2023-03-12T21:18:58.048Z,25.60
2023-03-12T21:21:27.836Z,28.33
2023-03-12T21:23:57.614Z,30.97
2023-03-12T21:26:27.437Z,25.85
2023-03-12T21:28:57.516Z,40.00
2023-03-12T21:31:27.636Z,27.35
2023-03-12T21:33:58.394Z,35.00
2023-03-12T21:36:28.486Z,30.73
2023-03-12T21:38:58.245Z,32.60
2023-03-12T21:41:28.076Z,37.37
2023-03-12T21:43:59.410Z,37.17
2023-03-12T21:46:30.093Z,36.30
2023-03-12T21:49:00.727Z,28.37
2023-03-12T21:51:30.557Z,42.57
2023-03-12T21:54:00.494Z,33.90
2023-03-12T21:56:30.340Z,37.10
2023-03-12T21:59:00.487Z,34.40
2023-03-12T22:01:30.394Z,23.03
2023-03-12T22:04:01.218Z,32.70
2023-03-12T22:06:31.061Z,29.30
2023-03-12T22:09:01.044Z,32.37
2023-03-12T22:11:31.111Z,37.35
2023-03-12T22:14:00.948Z,32.60
2023-03-12T22:16:30.818Z,26.35
2023-03-12T22:19:00.913Z,30.57
2023-03-12T22:21:30.678Z,27.10
2023-03-12T22:24:02.682Z,31.10
2023-03-12T22:26:32.599Z,20.43
2023-03-12T22:29:02.367Z,26.40
2023-03-12T22:31:32.253Z,23.13
2023-03-12T22:34:02.127Z,28.47
2023-03-12T22:36:31.986Z,34.93
2023-03-12T22:39:02.060Z,28.87
2023-03-12T22:41:32.444Z,22.75
2023-03-12T22:44:07.499Z,30.97
2023-03-12T22:46:37.649Z,27.43
2023-03-12T22:49:07.892Z,30.20
2023-03-12T22:51:37.616Z,23.27
2023-03-12T22:54:07.320Z,24.25
2023-03-12T22:56:37.205Z,21.10
2023-03-12T22:59:07.044Z,24.97
2023-03-12T23:01:36.848Z,35.60
2023-03-12T23:04:07.252Z,25.32
2023-03-12T23:06:37.111Z,26.67
2023-03-12T23:09:06.974Z,17.47
2023-03-12T23:11:36.742Z,23.57
2023-03-12T23:14:08.504Z,24.43
2023-03-12T23:16:38.325Z,25.70
2023-03-12T23:19:08.718Z,20.77
2023-03-12T23:21:38.442Z,23.03
2023-03-12T23:24:10.862Z,22.95
2023-03-12T23:26:41.800Z,20.90
2023-03-12T23:29:14.511Z,21.87
2023-03-12T23:31:44.468Z,34.43
2023-03-12T23:34:13.994Z,26.07
2023-03-12T23:36:44.435Z,24.10
2023-03-12T23:39:14.436Z,31.27
2023-03-12T23:41:44.229Z,25.83
2023-03-12T23:44:14.218Z,20.57
2023-03-12T23:46:45.048Z,24.00
2023-03-12T23:49:14.825Z,25.97
2023-03-12T23:51:44.632Z,25.03
2023-03-12T23:54:16.130Z,26.44
2023-03-12T23:56:45.891Z,24.37
2023-03-12T23:59:15.732Z,32.33
